Time;durP1;ratioP1;P1;durP2;ratioP2;P2;SDS_P1;SDS_P2;PMS_P1;PMS_P2;Temp;Humidity;BMP_temperature;BMP_pressure;BME280_temperature;BME280_humidity;BME280_pressure;Samples;Min_cycle;Max_cycle;Signal;HPM_P1;HPM_P2
2023/02/06 00:01:53;;;;;;;8.30;5.10;;;;;;;-8.44;70.13;98575.77;110131;1242;69284;-72
2023/02/06 00:04:23;;;;;;;7.00;4.80;;;;;;;-8.44;70.18;98574.40;110102;1241;58834;-72
2023/02/06 00:06:52;;;;;;;6.50;3.60;;;;;;;-8.45;68.49;98577.77;110157;1245;58861;-72
2023/02/06 00:09:21;;;;;;;7.40;4.90;;;;;;;-8.45;69.49;98579.63;109924;1241;70646;-72
2023/02/06 00:11:51;;;;;;;8.80;4.60;;;;;;;-8.46;70.28;98583.81;110134;1241;69111;-72
2023/02/06 00:14:21;;;;;;;6.40;4.40;;;;;;;-8.48;71.02;98586.50;110136;1246;68305;-72
2023/02/06 00:16:50;;;;;;;6.60;4.20;;;;;;;-8.49;71.77;98593.24;110083;1245;58934;-72
2023/02/06 00:19:20;;;;;;;8.80;5.80;;;;;;;-8.49;71.69;98598.30;110137;1243;59260;-72
2023/02/06 00:21:50;;;;;;;9.00;6.30;;;;;;;-8.52;70.27;98594.35;110146;1245;70436;-72
2023/02/06 00:24:20;;;;;;;10.50;7.10;;;;;;;-8.55;69.51;98597.31;110184;1241;68540;-72
2023/02/06 00:26:49;;;;;;;8.90;7.20;;;;;;;-8.58;67.51;98600.15;110118;1241;69136;-72
2023/02/06 00:29:19;;;;;;;6.60;4.90;;;;;;;-8.59;67.42;98600.64;110140;1243;58873;-72
2023/02/06 00:31:48;;;;;;;10.50;6.10;;;;;;;-8.57;67.79;98598.81;110135;1244;58806;-72
2023/02/06 00:34:18;;;;;;;;;;;;;;;-8.54;69.76;98598.54;109871;1245;71829;-72
2023/02/06 00:36:47;;;;;;;5.50;3.80;;;;;;;-8.52;70.91;98599.25;110143;1245;69155;-72
2023/02/06 00:39:18;;;;;;;9.00;6.50;;;;;;;-8.51;71.34;98599.94;110153;1244;69385;-72
2023/02/06 00:41:49;;;;;;;9.60;6.70;;;;;;;-8.51;74.28;98603.49;110111;1241;58916;-72
2023/02/06 00:44:20;;;;;;;9.90;6.20;;;;;;;-8.55;73.87;98599.52;110082;1244;58887;-72
2023/02/06 00:46:50;;;;;;;7.10;4.80;;;;;;;-8.60;73.03;98599.94;110197;1245;70441;-72
2023/02/06 00:49:20;;;;;;;6.40;4.60;;;;;;;-8.63;71.66;98600.55;110127;1245;68482;-72
2023/02/06 00:51:51;;;;;;;15.20;9.90;;;;;;;-8.64;70.82;98600.16;109834;1241;69774;-72
2023/02/06 00:54:21;;;;;;;7.50;5.80;;;;;;;-8.67;68.84;98605.19;110140;1245;59296;-72
2023/02/06 00:56:50;;;;;;;7.00;5.70;;;;;;;-8.71;69.01;98603.91;110120;1244;58879;-72
2023/02/06 00:59:21;;;;;;;10.70;5.90;;;;;;;-8.72;69.05;98602.37;110114;1244;70621;-72
2023/02/06 01:01:50;;;;;;;10.90;6.90;;;;;;;-8.74;69.03;98604.02;110114;1245;68463;-72
2023/02/06 01:04:20;;;;;;;;;;;;;;;-8.76;70.07;98608.02;110126;1241;69245;-72
2023/02/06 01:06:51;;;;;;;8.80;5.60;;;;;;;-8.75;72.85;98608.89;109831;1245;58976;-71
2023/02/06 01:09:22;;;;;;;10.10;5.60;;;;;;;-8.76;73.81;98610.57;110176;1241;58940;-72
2023/02/06 01:11:52;;;;;;;;;;;;;;;-8.74;74.82;98610.44;110141;1243;70566;-72
2023/02/06 01:14:22;;;;;;;9.90;5.60;;;;;;;-8.72;75.07;98607.45;110186;1243;69135;-72
2023/02/06 01:16:53;;;;;;;10.00;7.00;;;;;;;-8.70;74.95;98608.66;109795;1245;69507;-71
2023/02/06 01:19:23;;;;;;;7.90;5.70;;;;;;;-8.67;75.56;98609.41;110121;1241;58877;-72
2023/02/06 01:21:54;;;;;;;7.20;5.70;;;;;;;-8.64;75.09;98609.82;110131;1245;58851;-72
2023/02/06 01:24:24;;;;;;;8.40;5.60;;;;;;;-8.62;73.98;98611.20;110150;1245;70622;-71
2023/02/06 01:26:54;;;;;;;9.70;4.90;;;;;;;-8.60;75.52;98611.77;110172;1245;69820;-73
2023/02/06 01:29:24;;;;;;;;;;;;;;;-8.56;76.02;98610.31;110158;1245;69372;-73
2023/02/06 01:31:55;;;;;;;13.80;8.30;;;;;;;-8.54;77.89;98613.08;110190;1243;58937;-73
2023/02/06 01:34:24;;;;;;;;;;;;;;;-8.54;77.81;98614.94;110134;1244;58886;-72
2023/02/06 01:36:55;;;;;;;13.70;9.30;;;;;;;-8.55;76.38;98612.20;110079;1245;70641;-72
2023/02/06 01:39:26;;;;;;;12.20;7.40;;;;;;;-8.55;74.52;98612.53;110154;1244;69132;-72
2023/02/06 01:42:00;;;;;;;8.00;4.90;;;;;;;-8.55;73.73;98614.23;110148;1245;68692;-72
2023/02/06 01:44:31;;;;;;;11.70;6.90;;;;;;;-8.54;75.23;98612.40;110108;1245;58927;-73
2023/02/06 01:47:01;;;;;;;12.80;9.80;;;;;;;-8.53;77.83;98611.58;110139;1245;58876;-71
2023/02/06 01:49:46;;;;;;;15.00;9.30;;;;;;;-8.52;79.20;98615.48;110123;1246;70602;-71
2023/02/06 01:52:23;;;;;;;12.70;7.70;;;;;;;-8.50;78.70;98616.55;110156;1242;67742;-71
2023/02/06 01:55:02;;;;;;;10.20;7.10;;;;;;;-8.49;77.78;98611.16;110047;1245;68843;-71
2023/02/06 01:57:34;;;;;;;11.20;7.00;;;;;;;-8.48;77.62;98608.48;110073;1244;58942;-71
2023/02/06 02:00:08;;;;;;;12.70;7.60;;;;;;;-8.46;75.81;98606.99;109922;1246;58917;-71
2023/02/06 02:02:44;;;;;;;9.50;6.50;;;;;;;-8.43;76.22;98605.69;110142;1245;71179;-71
2023/02/06 02:05:15;;;;;;;17.20;10.20;;;;;;;-8.40;76.94;98608.30;109841;1245;69174;-71
2023/02/06 02:07:59;;;;;;;15.10;7.40;;;;;;;-8.41;76.07;98609.81;110123;1243;69348;-71
2023/02/06 02:10:30;;;;;;;14.60;8.30;;;;;;;-8.45;76.01;98613.11;110140;1243;58902;-71
2023/02/06 02:13:01;;;;;;;12.40;7.60;;;;;;;-8.47;74.29;98618.46;110231;1243;58945;-73
2023/02/06 02:15:44;;;;;;;12.10;7.10;;;;;;;-8.48;75.00;98619.13;110056;1245;69605;-72
2023/02/06 02:19:17;;;;;;;13.60;8.90;;;;;;;-8.48;77.84;98617.09;110247;1245;69125;-72
2023/02/06 02:22:22;;;;;;;10.90;6.80;;;;;;;-8.47;76.47;98621.17;109980;1241;68558;-72
2023/02/06 02:25:04;;;;;;;12.70;7.40;;;;;;;-8.47;76.40;98621.69;110156;1245;58969;-71
2023/02/06 02:28:06;;;;;;;8.00;4.90;;;;;;;-8.46;75.79;98625.42;109926;1241;58907;-71
2023/02/06 02:30:51;;;;;;;11.20;5.70;;;;;;;-8.43;75.29;98631.23;110188;1245;70517;-72
2023/02/06 02:34:02;;;;;;;7.00;5.50;;;;;;;-8.43;75.37;98627.69;110137;1245;68780;-71
2023/02/06 02:36:37;;;;;;;13.00;8.30;;;;;;;-8.43;75.93;98637.33;110117;1246;69368;-71
2023/02/06 02:39:23;;;;;;;15.30;11.40;;;;;;;-8.48;74.82;98636.71;110149;1246;58897;-71
2023/02/06 02:42:11;;;;;;;19.70;13.00;;;;;;;-8.55;72.48;98635.88;110114;1242;58925;-71
2023/02/06 02:45:00;;;;;;;15.00;9.90;;;;;;;-8.63;73.92;98636.70;110110;1245;70477;-71
2023/02/06 02:47:38;;;;;;;16.90;9.20;;;;;;;-8.71;74.90;98640.08;109925;1245;69109;-71
2023/02/06 02:50:08;;;;;;;20.00;11.80;;;;;;;-8.77;75.06;98650.59;109847;1241;68517;-71
2023/02/06 02:52:38;;;;;;;15.70;9.20;;;;;;;-8.82;75.48;98651.65;109821;1245;58959;-71
2023/02/06 02:55:21;;;;;;;12.70;8.70;;;;;;;-8.86;77.18;98650.89;109823;1245;58829;-71
2023/02/06 02:58:02;;;;;;;16.10;10.80;;;;;;;-8.89;78.55;98657.91;110148;1245;69898;-71
2023/02/06 03:00:38;;;;;;;16.30;9.80;;;;;;;-8.89;78.70;98659.26;110144;1245;69291;-71
2023/02/06 03:03:11;;;;;;;12.00;7.70;;;;;;;-8.88;77.45;98665.86;110160;1247;68573;-71
2023/02/06 03:05:54;;;;;;;13.50;8.60;;;;;;;-8.90;75.90;98666.17;110138;1244;58878;-71
2023/02/06 03:08:42;;;;;;;18.50;9.10;;;;;;;-8.91;76.93;98663.61;110140;1245;58886;-71
2023/02/06 03:11:17;;;;;;;12.10;8.10;;;;;;;-8.91;78.25;98661.41;109977;1245;70429;-71
2023/02/06 03:13:47;;;;;;;11.20;7.60;;;;;;;-8.87;76.58;98665.23;110112;1246;68489;-71
2023/02/06 03:16:22;;;;;;;9.30;5.70;;;;;;;-8.81;76.39;98665.02;109935;1245;69317;-71
2023/02/06 03:18:57;;;;;;;10.70;7.40;;;;;;;-8.72;76.21;98666.59;110151;1244;58893;-71
2023/02/06 03:21:30;;;;;;;8.00;5.20;;;;;;;-8.65;76.34;98663.55;110134;1246;58946;-71
2023/02/06 03:24:05;;;;;;;7.80;4.90;;;;;;;-8.59;75.88;98658.09;110202;1244;69880;-71
2023/02/06 03:26:38;;;;;;;8.20;4.90;;;;;;;-8.54;75.18;98657.37;110153;1244;68506;-70
2023/02/06 03:29:14;;;;;;;6.20;4.50;;;;;;;-8.52;75.08;98647.95;110149;1245;69189;-71
2023/02/06 03:31:55;;;;;;;13.50;7.30;;;;;;;-8.55;75.38;98647.70;110127;1245;58871;-70
2023/02/06 03:34:57;;;;;;;7.00;5.30;;;;;;;-8.61;74.69;98650.63;110143;1244;58878;-70
2023/02/06 03:37:28;;;;;;;8.90;5.00;;;;;;;-8.68;75.50;98645.55;110161;1243;70190;-71
2023/02/06 03:40:00;;;;;;;7.40;4.30;;;;;;;-8.71;74.18;98646.66;110161;1246;68503;-70
2023/02/06 03:42:32;;;;;;;17.40;10.20;;;;;;;-8.75;75.16;98657.06;110121;1241;69100;-71
2023/02/06 03:45:11;;;;;;;13.80;8.80;;;;;;;-8.80;76.21;98659.14;110192;1244;58921;-71
2023/02/06 03:47:45;;;;;;;16.40;10.30;;;;;;;-8.86;74.63;98663.56;110174;1243;58875;-72
2023/02/06 03:50:17;;;;;;;17.80;8.90;;;;;;;-8.94;73.45;98666.73;110368;1243;69869;-72
2023/02/06 03:52:50;;;;;;;15.70;9.70;;;;;;;-9.03;73.49;98670.76;110339;1245;68509;-71
2023/02/06 03:55:22;;;;;;;10.60;7.70;;;;;;;-9.09;75.34;98675.01;110199;1243;69264;-72
2023/02/06 03:58:12;;;;;;;10.70;6.90;;;;;;;-9.12;76.75;98676.95;110186;1241;59430;-72
2023/02/06 04:00:44;;;;;;;6.70;6.00;;;;;;;-9.16;77.24;98678.54;110161;1245;58844;-71
2023/02/06 04:03:18;;;;;;;8.10;5.10;;;;;;;-9.19;76.21;98682.84;110168;1245;71215;-71
2023/02/06 04:05:48;;;;;;;12.90;6.90;;;;;;;-9.21;76.10;98677.88;110165;1243;69258;-72
2023/02/06 04:08:17;;;;;;;12.10;8.10;;;;;;;-9.22;78.10;98678.71;110096;1243;69120;-72
2023/02/06 04:10:47;;;;;;;11.00;8.00;;;;;;;-9.22;76.60;98677.53;110092;1245;58979;-71
2023/02/06 04:13:17;;;;;;;16.70;10.40;;;;;;;-9.25;74.75;98676.10;110146;1241;59287;-71
2023/02/06 04:15:48;;;;;;;17.70;9.80;;;;;;;-9.30;74.21;98672.61;110141;1245;69641;-71
2023/02/06 04:18:18;;;;;;;19.10;11.30;;;;;;;-9.36;73.90;98672.29;110141;1245;68144;-71
2023/02/06 04:20:47;;;;;;;14.40;9.20;;;;;;;-9.42;74.30;98670.41;110113;1242;68587;-72
2023/02/06 04:23:18;;;;;;;15.30;8.20;;;;;;;-9.49;74.56;98669.74;110084;1243;59686;-71
2023/02/06 04:25:48;;;;;;;12.90;9.70;;;;;;;-9.55;74.80;98670.44;110154;1241;59743;-71
2023/02/06 04:28:18;;;;;;;;;;;;;;;-9.59;73.89;98670.47;110118;1245;71215;-70
2023/02/06 04:30:48;;;;;;;16.10;9.40;;;;;;;-9.65;75.80;98676.90;110138;1243;69224;-70
2023/02/06 04:33:17;;;;;;;12.90;8.30;;;;;;;-9.74;77.78;98674.14;110144;1251;69975;-70
2023/02/06 04:35:47;;;;;;;11.70;8.40;;;;;;;-9.83;78.58;98683.00;110082;1241;59696;-70
2023/02/06 04:38:17;;;;;;;10.30;7.70;;;;;;;-9.89;79.55;98687.05;110139;1245;59702;-70
2023/02/06 04:40:47;;;;;;;9.90;7.10;;;;;;;-9.95;79.63;98684.33;110194;1241;71294;-70
2023/02/06 04:43:16;;;;;;;14.30;8.80;;;;;;;-10.02;79.68;98689.70;109883;1245;69322;-70
2023/02/06 04:45:46;;;;;;;14.30;8.30;;;;;;;-10.10;80.67;98691.34;110114;1245;69205;-70
2023/02/06 04:48:15;;;;;;;10.10;8.20;;;;;;;-10.18;80.10;98689.27;109974;1241;59757;-71
2023/02/06 04:50:45;;;;;;;11.30;7.50;;;;;;;-10.26;80.01;98691.91;110159;1246;59680;-72
2023/02/06 04:53:16;;;;;;;15.30;9.70;;;;;;;-10.33;80.64;98696.08;110116;1246;70807;-72
2023/02/06 04:55:46;;;;;;;16.60;9.90;;;;;;;-10.40;80.20;98699.26;110018;1241;69552;-71
2023/02/06 04:58:16;;;;;;;18.40;9.80;;;;;;;-10.44;78.02;98700.45;110210;1245;69282;-72
2023/02/06 05:00:46;;;;;;;18.80;9.90;;;;;;;-10.49;81.21;98702.83;109869;1241;59876;-71
2023/02/06 05:03:15;;;;;;;20.10;12.20;;;;;;;-10.53;81.46;98705.40;110183;1244;59670;-71
2023/02/06 05:05:44;;;;;;;19.80;11.00;;;;;;;-10.57;81.54;98707.82;109884;1241;72266;-70
2023/02/06 05:08:14;;;;;;;16.00;9.60;;;;;;;-10.59;82.60;98716.00;110137;1243;69023;-70
2023/02/06 05:10:43;;;;;;;17.20;12.70;;;;;;;-10.61;83.01;98713.59;110133;1244;70338;-70
2023/02/06 05:13:13;;;;;;;11.60;7.30;;;;;;;-10.64;83.41;98715.50;110123;1245;59747;-70
2023/02/06 05:15:42;;;;;;;15.60;9.50;;;;;;;-10.68;82.95;98720.45;109861;1246;59740;-69
2023/02/06 05:18:12;;;;;;;24.20;12.30;;;;;;;-10.73;81.80;98720.44;110184;1243;72049;-70
2023/02/06 05:20:42;;;;;;;21.90;14.80;;;;;;;-10.79;81.55;98720.77;110160;1245;69297;-70
2023/02/06 05:23:11;;;;;;;16.50;10.20;;;;;;;-10.84;80.89;98723.45;110106;1245;69327;-69
2023/02/06 05:25:40;;;;;;;17.70;10.80;;;;;;;-10.89;82.87;98723.66;110128;1245;59674;-70
2023/02/06 05:28:10;;;;;;;15.80;9.70;;;;;;;-10.90;85.35;98724.44;110160;1245;59691;-70
2023/02/06 05:30:39;;;;;;;22.80;13.80;;;;;;;-10.94;84.88;98729.71;110199;1245;71229;-70
2023/02/06 05:33:09;;;;;;;23.30;13.30;;;;;;;-10.98;82.04;98728.59;110132;1245;69615;-70
2023/02/06 05:35:39;;;;;;;27.30;19.90;;;;;;;-10.99;84.62;98730.05;110143;1251;70297;-70
2023/02/06 05:38:08;;;;;;;39.10;23.40;;;;;;;-11.00;86.98;98734.03;110077;1244;59810;-70
2023/02/06 05:40:37;;;;;;;30.40;16.20;;;;;;;-11.03;87.18;98739.53;110142;1244;59677;-70
2023/02/06 05:43:08;;;;;;;15.40;11.20;;;;;;;-11.06;86.53;98735.54;110165;1243;71441;-70
2023/02/06 05:45:37;;;;;;;15.90;10.40;;;;;;;-11.12;85.55;98738.89;110184;1245;70072;-70
2023/02/06 05:48:06;;;;;;;15.70;9.90;;;;;;;-11.16;84.33;98745.64;109769;1241;69877;-70
2023/02/06 05:50:36;;;;;;;15.50;9.60;;;;;;;-11.17;83.30;98744.59;110162;1241;59738;-70
2023/02/06 05:53:16;;;;;;;15.30;11.20;;;;;;;-11.16;80.80;98747.67;109934;1243;59701;-70
2023/02/06 05:55:45;;;;;;;24.30;14.00;;;;;;;-11.14;80.23;98753.61;110061;1241;70665;-70
2023/02/06 05:58:15;;;;;;;19.00;12.60;;;;;;;-11.12;83.08;98754.39;110085;1246;69087;-70
2023/02/06 06:00:44;;;;;;;18.20;12.80;;;;;;;-11.07;84.65;98753.19;109897;1245;70018;-70
2023/02/06 06:03:14;;;;;;;20.80;13.80;;;;;;;-11.02;84.18;98757.41;110216;1243;59763;-70
2023/02/06 06:05:44;;;;;;;22.70;14.30;;;;;;;-10.96;80.13;98752.88;110017;1245;59651;-69
2023/02/06 06:08:14;;;;;;;23.30;13.00;;;;;;;-10.93;78.77;98749.45;110158;1245;71417;-70
2023/02/06 06:10:43;;;;;;;20.50;13.60;;;;;;;-10.92;80.64;98742.41;110093;1246;69604;-70
2023/02/06 06:13:12;;;;;;;20.20;11.30;;;;;;;-10.91;83.69;98748.34;110159;1245;69923;-70
2023/02/06 06:15:42;;;;;;;18.80;10.70;;;;;;;-10.90;83.86;98748.38;109948;1241;59719;-70
2023/02/06 06:18:11;;;;;;;20.70;12.30;;;;;;;-10.89;84.71;98747.41;110166;1245;59681;-71
2023/02/06 06:20:41;;;;;;;;;;;;;;;-10.88;83.47;98748.27;109749;1248;71388;-69
2023/02/06 06:23:10;;;;;;;26.60;15.70;;;;;;;-10.87;81.16;98752.50;110175;1244;69039;-70
2023/02/06 06:25:39;;;;;;;28.10;16.60;;;;;;;-10.86;83.40;98750.71;109977;1245;69241;-70
2023/02/06 06:28:08;;;;;;;27.60;15.50;;;;;;;-10.81;84.49;98753.39;110027;1241;59715;-70
2023/02/06 06:30:37;;;;;;;27.50;16.10;;;;;;;-10.74;84.22;98757.80;110077;1248;59735;-70
2023/02/06 06:33:06;;;;;;;25.40;16.30;;;;;;;-10.66;84.27;98761.63;109851;1241;71999;-72
2023/02/06 06:35:35;;;;;;;29.70;17.90;;;;;;;-10.54;83.37;98761.85;110177;1243;69852;-71
2023/02/06 06:38:05;;;;;;;22.90;14.80;;;;;;;-10.39;83.39;98766.86;109882;1243;69288;-72
2023/02/06 06:40:33;;;;;;;26.00;16.30;;;;;;;-10.27;83.50;98773.81;109756;1248;59754;-71
2023/02/06 06:43:03;;;;;;;23.60;16.40;;;;;;;-10.12;83.28;98772.37;110134;1244;59773;-72
2023/02/06 06:45:33;;;;;;;28.40;17.00;;;;;;;-9.97;82.93;98775.69;110138;1245;70709;-71
2023/02/06 06:48:03;;;;;;;27.50;16.90;;;;;;;-9.80;82.71;98777.89;110275;1244;68607;-71
2023/02/06 06:50:32;;;;;;;26.40;17.50;;;;;;;-9.61;81.77;98774.40;109940;1248;69213;-71
2023/02/06 06:53:03;;;;;;;28.90;17.20;;;;;;;-9.41;81.62;98777.16;109922;1247;59746;-72
2023/02/06 06:55:32;;;;;;;34.00;18.70;;;;;;;-9.21;80.73;98771.80;109762;1245;59631;-72
2023/02/06 06:58:01;;;;;;;26.30;16.00;;;;;;;-9.08;79.68;98772.13;109819;1243;71987;-72
2023/02/06 07:00:30;;;;;;;19.70;11.80;;;;;;;-8.88;79.68;98765.55;109871;1247;68545;-72
2023/02/06 07:02:59;;;;;;;15.10;11.10;;;;;;;-8.50;78.97;98761.42;109810;1248;69853;-72
2023/02/06 07:05:28;;;;;;;19.10;13.00;;;;;;;-7.94;75.70;98763.88;110036;1245;59695;-72
2023/02/06 07:07:57;;;;;;;15.70;10.20;;;;;;;-7.39;73.05;98758.94;109832;1248;59733;-72
2023/02/06 07:10:26;;;;;;;19.90;12.10;;;;;;;-6.72;71.96;98755.23;110096;1245;70827;-72
2023/02/06 07:12:55;;;;;;;32.40;18.90;;;;;;;-6.13;70.53;98757.37;110089;1246;69129;-72
2023/02/06 07:15:25;;;;;;;31.10;21.50;;;;;;;-5.80;67.97;98759.02;110097;1245;69882;-72
2023/02/06 07:17:54;;;;;;;42.20;27.30;;;;;;;-5.36;68.95;98761.45;109765;1248;59829;-72
2023/02/06 07:20:23;;;;;;;54.10;33.50;;;;;;;-4.82;68.96;98760.50;109774;1246;59684;-72
2023/02/06 07:22:52;;;;;;;31.10;22.70;;;;;;;-4.24;67.60;98761.52;110092;1245;72023;-73
2023/02/06 07:25:22;;;;;;;34.20;23.80;;;;;;;-4.02;63.21;98752.14;109760;1248;69144;-73
2023/02/06 07:27:51;;;;;;;36.40;23.30;;;;;;;-4.25;61.90;98744.83;109949;1248;68985;-72
2023/02/06 07:30:20;;;;;;;30.90;20.70;;;;;;;-4.37;62.19;98753.75;110207;1246;59712;-72
2023/02/06 07:32:49;;;;;;;32.70;24.40;;;;;;;-3.96;62.52;98755.41;109946;1247;59656;-73
2023/02/06 07:35:19;;;;;;;31.00;23.70;;;;;;;-3.82;61.12;98749.86;109781;1247;71334;-72
2023/02/06 07:37:47;;;;;;;32.90;22.40;;;;;;;-3.61;60.86;98760.04;110129;1244;69654;-72
2023/02/06 07:40:17;;;;;;;33.00;23.20;;;;;;;-3.17;61.70;98762.44;110126;1245;69167;-72
2023/02/06 07:42:45;;;;;;;32.70;22.30;;;;;;;-3.00;59.10;98758.23;110154;1244;59744;-72
2023/02/06 07:45:25;;;;;;;19.60;13.20;;;;;;;-2.77;57.39;98757.60;110135;1244;59682;-72
2023/02/06 07:47:54;;;;;;;36.30;24.00;;;;;;;-2.94;57.35;98759.09;110142;1244;71492;-72
2023/02/06 07:50:23;;;;;;;35.00;25.00;;;;;;;-2.03;57.13;98768.91;110161;1243;69606;-72
2023/02/06 07:52:52;;;;;;;39.10;24.90;;;;;;;-1.51;55.02;98764.54;110099;1244;69857;-72
2023/02/06 07:55:22;;;;;;;35.20;24.00;;;;;;;-1.64;54.07;98770.38;110120;1243;59695;-71
2023/02/06 07:57:51;;;;;;;33.10;21.90;;;;;;;-1.52;53.50;98766.93;109886;1241;59813;-72
2023/02/06 08:00:21;;;;;;;25.40;17.50;;;;;;;-1.39;53.16;98766.55;109873;1246;70430;-71
2023/02/06 08:02:50;;;;;;;27.70;18.70;;;;;;;-1.60;52.88;98767.48;110137;1244;69435;-71
2023/02/06 08:05:19;;;;;;;32.50;19.60;;;;;;;-2.17;53.46;98775.23;110175;1244;68514;-71
2023/02/06 08:07:50;;;;;;;28.10;19.80;;;;;;;-1.77;53.78;98770.05;110163;1242;59742;-71
2023/02/06 08:10:20;;;;;;;24.00;17.90;;;;;;;-1.69;53.42;98778.09;110187;1244;59636;-71
2023/02/06 08:12:48;;;;;;;28.50;18.40;;;;;;;-1.77;53.46;98781.17;110143;1244;70972;-71
2023/02/06 08:15:18;;;;;;;24.60;17.50;;;;;;;-2.04;53.69;98786.86;110196;1244;69054;-71
2023/02/06 08:17:47;;;;;;;27.00;17.40;;;;;;;-2.74;54.45;98786.80;110113;1244;70248;-70
2023/02/06 08:20:16;;;;;;;27.30;17.90;;;;;;;-2.93;55.05;98786.91;110106;1243;59743;-70
2023/02/06 08:22:45;;;;;;;23.30;15.70;;;;;;;-3.24;55.69;98791.25;110193;1243;59634;-70
2023/02/06 08:25:14;;;;;;;23.00;15.10;;;;;;;-3.23;56.26;98796.71;110138;1241;71986;-70
2023/02/06 08:27:43;;;;;;;25.70;17.90;;;;;;;-3.02;56.37;98798.14;110161;1243;69274;-71
2023/02/06 08:30:12;;;;;;;27.20;18.00;;;;;;;-2.95;56.17;98792.19;110261;1250;69586;-70
2023/02/06 08:32:42;;;;;;;23.50;17.70;;;;;;;-3.32;57.12;98791.55;110215;1244;59678;-70
2023/02/06 08:35:11;;;;;;;21.30;13.60;;;;;;;-3.42;57.33;98792.17;110204;1240;59705;-70
2023/02/06 08:37:40;;;;;;;19.10;13.70;;;;;;;-3.32;57.62;98793.77;110256;1242;70640;-71
2023/02/06 08:40:10;;;;;;;18.30;12.60;;;;;;;-3.12;57.43;98790.09;110266;1242;68496;-69
2023/02/06 08:42:39;;;;;;;11.30;8.70;;;;;;;-2.58;56.28;98785.13;110227;1242;69151;-70
2023/02/06 08:45:08;;;;;;;11.70;8.00;;;;;;;-1.86;54.25;98787.69;110284;1241;59711;-70
2023/02/06 08:47:37;;;;;;;11.10;7.50;;;;;;;-1.33;51.87;98788.24;110251;1242;59643;-71
2023/02/06 08:50:06;;;;;;;11.90;7.30;;;;;;;-1.06;52.35;98787.80;110203;1241;71825;-71
2023/02/06 08:52:35;;;;;;;11.60;8.50;;;;;;;-0.89;51.78;98790.28;110227;1243;69257;-70
2023/02/06 08:55:05;;;;;;;11.70;7.70;;;;;;;-0.78;51.66;98791.94;110207;1242;68392;-71
2023/02/06 08:57:34;;;;;;;13.00;8.30;;;;;;;-0.53;51.51;98790.77;110265;1242;59743;-71
2023/02/06 09:00:03;;;;;;;12.20;8.60;;;;;;;-0.32;49.49;98791.83;110221;1242;59670;-73
2023/02/06 09:02:34;;;;;;;11.20;8.40;;;;;;;-0.32;49.27;98790.63;110147;1242;71177;-71
2023/02/06 09:05:04;;;;;;;15.10;10.30;;;;;;;-0.01;49.76;98798.11;110237;1241;69346;-71
2023/02/06 09:07:33;;;;;;;12.80;9.60;;;;;;;-0.02;48.25;98793.81;110172;1241;69899;-71
2023/02/06 09:10:02;;;;;;;15.80;10.00;;;;;;;-0.30;48.63;98791.99;110241;1241;59746;-70
2023/02/06 09:25:34;;;;;;;18.40;13.80;;;;;;;1.41;46.14;98803.12;107172;1270;609876;-71
2023/02/06 09:28:03;;;;;;;17.80;13.60;;;;;;;1.40;45.36;98801.85;108979;1253;210344;-70
2023/02/06 09:30:32;;;;;;;18.20;13.90;;;;;;;1.01;45.83;98798.58;109170;1258;57704;-72
2023/02/06 09:33:00;;;;;;;21.50;15.00;;;;;;;0.29;47.17;98805.71;109217;1258;69558;-71
2023/02/06 09:35:31;;;;;;;21.30;16.00;;;;;;;0.33;47.16;98806.17;109216;1253;69250;-71
2023/02/06 09:38:00;;;;;;;24.10;16.00;;;;;;;-0.58;48.88;98807.23;109241;1254;69963;-72
2023/02/06 09:40:34;;;;;;;20.10;15.60;;;;;;;-0.94;50.02;98801.43;109092;1254;57648;-72
2023/02/06 09:43:03;;;;;;;21.20;15.40;;;;;;;-1.42;51.04;98809.13;109172;1258;58039;-72
2023/02/06 09:45:32;;;;;;;14.50;10.70;;;;;;;-2.07;52.71;98810.59;109217;1256;68040;-72
2023/02/06 09:48:19;;;;;;;15.80;10.70;;;;;;;-2.19;53.85;98808.54;109192;1253;69127;-72
2023/02/06 09:51:25;;;;;;;16.70;11.90;;;;;;;-2.02;54.06;98807.86;109150;1254;69856;-71
2023/02/06 09:54:10;;;;;;;17.40;12.10;;;;;;;-1.95;53.87;98811.27;109087;1253;58082;-72
2023/02/06 09:56:46;;;;;;;20.10;13.80;;;;;;;-2.12;54.66;98810.25;109050;1255;58098;-71
2023/02/06 10:00:09;;;;;;;21.40;14.80;;;;;;;-2.07;54.47;98805.30;109204;1254;68770;-72
2023/02/06 10:03:09;;;;;;;18.40;12.00;;;;;;;-2.13;55.03;98804.27;108468;1264;69251;-71
2023/02/06 10:05:50;;;;;;;22.60;16.30;;;;;;;-1.97;54.56;98803.93;108385;1260;68651;-71
2023/02/06 10:08:33;;;;;;;23.70;14.90;;;;;;;-2.00;54.06;98800.85;108888;1258;58100;-71
2023/02/06 10:11:16;;;;;;;19.90;14.20;;;;;;;-2.04;54.06;98803.59;109223;1255;58144;-72
2023/02/06 10:13:52;;;;;;;25.80;16.90;;;;;;;-2.10;55.25;98798.98;109099;1253;70473;-71
2023/02/06 10:16:42;;;;;;;24.50;15.30;;;;;;;-2.11;54.67;98793.85;109154;1253;68824;-72
2023/02/06 10:19:18;;;;;;;;;;;;;;;-2.02;54.74;98794.02;109216;1254;69077;-72
2023/02/06 10:22:14;;;;;;;18.50;11.90;;;;;;;-2.00;54.53;98795.55;109058;1254;58190;-71
2023/02/06 10:24:59;;;;;;;16.20;10.70;;;;;;;-2.06;55.29;98796.59;109067;1255;58168;-70
2023/02/06 10:27:32;;;;;;;11.90;8.80;;;;;;;-2.10;54.94;98789.41;109069;1257;69952;-72
2023/02/06 10:30:00;;;;;;;14.60;10.40;;;;;;;-2.12;54.95;98784.98;109108;1256;69064;-71
2023/02/06 10:32:57;;;;;;;20.90;13.40;;;;;;;-2.00;55.59;98784.62;109127;1254;69467;-71
2023/02/06 10:35:39;;;;;;;19.90;12.80;;;;;;;-2.04;56.09;98787.54;109151;1253;58163;-71
2023/02/06 10:38:29;;;;;;;15.90;10.00;;;;;;;-1.96;56.33;98794.54;109216;1254;58102;-73
2023/02/06 10:41:05;;;;;;;13.30;8.90;;;;;;;-1.99;55.75;98795.05;110096;1244;70273;-73
2023/02/06 10:43:56;;;;;;;11.90;8.70;;;;;;;-1.74;55.40;98797.08;110090;1245;68560;-71
2023/02/06 10:46:47;;;;;;;15.30;9.90;;;;;;;-1.67;55.40;98791.59;110051;1244;69145;-70
2023/02/06 10:49:45;;;;;;;16.10;10.60;;;;;;;-1.78;55.87;98793.84;110150;1241;58138;-70
2023/02/06 10:52:27;;;;;;;14.10;9.00;;;;;;;-1.74;56.06;98794.50;110152;1245;58568;-71
2023/02/06 10:55:14;;;;;;;17.10;11.00;;;;;;;-1.81;55.29;98795.20;110148;1244;69629;-71
2023/02/06 10:57:46;;;;;;;17.10;10.90;;;;;;;-1.96;54.84;98787.36;110110;1245;69646;-71
2023/02/06 11:00:24;;;;;;;15.10;10.70;;;;;;;-1.79;55.46;98793.48;110094;1241;69242;-71
2023/02/06 11:02:58;;;;;;;13.80;10.00;;;;;;;-1.74;55.82;98793.83;110154;1244;58158;-72
2023/02/06 11:05:36;;;;;;;14.30;9.50;;;;;;;-1.64;56.28;98792.77;110168;1241;58131;-72
2023/02/06 11:08:37;;;;;;;14.50;9.90;;;;;;;-1.41;55.59;98785.38;110224;1241;70087;-72
2023/02/06 11:11:23;;;;;;;11.30;8.10;;;;;;;-1.31;54.22;98778.48;110174;1244;69255;-72
2023/02/06 11:13:59;;;;;;;15.30;9.10;;;;;;;-1.05;55.07;98777.37;110337;1244;69162;-72
2023/02/06 11:16:29;;;;;;;12.50;8.80;;;;;;;-0.91;54.84;98776.10;110281;1244;58132;-72
2023/02/06 11:19:11;;;;;;;14.90;10.90;;;;;;;-0.88;54.32;98779.34;110178;1244;58091;-72
2023/02/06 11:21:40;;;;;;;15.50;9.50;;;;;;;-0.98;54.68;98774.60;110159;1244;69760;-72
2023/02/06 11:24:15;;;;;;;14.90;9.60;;;;;;;-0.95;54.51;98774.40;110146;1244;68780;-71
2023/02/06 11:27:15;;;;;;;11.70;8.50;;;;;;;-0.89;54.79;98778.48;110144;1241;69651;-72
2023/02/06 11:29:48;;;;;;;14.10;9.80;;;;;;;-0.81;54.52;98775.52;110250;1245;58128;-72
2023/02/06 11:32:42;;;;;;;13.50;8.80;;;;;;;-0.76;54.04;98778.57;110144;1245;58090;-72
2023/02/06 11:35:46;;;;;;;14.10;9.40;;;;;;;-0.50;54.12;98774.98;110125;1245;70062;-72
2023/02/06 11:38:16;;;;;;;13.90;9.80;;;;;;;-0.25;53.55;98767.45;110160;1241;69654;-72
2023/02/06 11:41:01;;;;;;;18.50;11.70;;;;;;;-0.29;53.93;98765.25;110159;1244;69270;-72
2023/02/06 11:43:47;;;;;;;14.60;9.80;;;;;;;-0.20;53.52;98763.98;110127;1244;58123;-72
2023/02/06 11:46:18;;;;;;;14.60;9.90;;;;;;;0.02;52.63;98764.14;110140;1244;58074;-72
2023/02/06 11:49:01;;;;;;;15.40;10.40;;;;;;;0.00;52.53;98763.28;110156;1244;69824;-71
2023/02/06 11:51:58;;;;;;;14.20;9.80;;;;;;;0.23;52.70;98763.25;110172;1242;68752;-71
2023/02/06 11:54:34;;;;;;;15.60;10.10;;;;;;;0.34;52.83;98766.39;110113;1242;69381;-72
2023/02/06 11:57:19;;;;;;;15.20;9.50;;;;;;;0.41;52.13;98763.75;110117;1242;58102;-72
2023/02/06 11:59:52;;;;;;;12.80;8.60;;;;;;;0.41;52.38;98768.21;110168;1241;58124;-72
2023/02/06 12:02:28;;;;;;;14.20;8.80;;;;;;;0.47;51.45;98764.37;110141;1245;69635;-71